Latest Weather Observations for Gladstone Airport

IDQ60801

Issued at 8:35 pm EST Thursday 2 October 2014 (issued every 30 minutes, with the page automatically refreshed every 10 minutes)

About weather observations | Map of weather stations | Latest weather observations for QLD | Other Formats
Station Details ID: 039326 Name: GLADSTONE AIRPORT Lat: -23.87 Lon: 151.22 Height: 16.6 m
Data from the previous 72 hours. | See also: Recent months at Gladstone Airport
Date/Time
EST
Temp
°C
App
Temp
°C
Dew
Point
Rel
Hum
%
Delta-T
°C
Wind Press
QNH
hPa
Press
MSL
hPa
Rain
since 9 am
mm
Dir
 
Spd
km/h
Gust
km/h
Spd
kts
Gust
kts
02/08:30pm 21.5 19.4 16.2 72 3.2 ESE 22 32 12 17 1020.3 1020.3 0.0
02/08:00pm 21.7 20.1 16.6 73 3.1 ESE 20 32 11 17 1019.9 1019.9 0.0
02/07:30pm 21.6 18.9 16.6 73 3.0 ESE 26 35 14 19 1019.5 1019.5 0.0
02/07:00pm 21.7 18.6 16.6 73 3.1 ESE 28 41 15 22 1019.3 1019.3 0.0
02/06:30pm 21.9 19.2 16.6 72 3.2 ESE 26 35 14 19 1018.8 1018.8 0.0
02/06:00pm 22.1 19.9 16.8 72 3.2 ESE 24 32 13 17 1018.5 1018.5 0.0
02/05:30pm 22.6 19.8 17.3 72 3.3 ESE 28 35 15 19 1018.2 1018.2 0.0
02/05:00pm 23.0 20.1 17.0 69 3.7 E 28 39 15 21 1017.8 1017.8 0.0
02/04:30pm 23.6 19.9 16.9 66 4.1 E 32 43 17 23 1017.7 1017.7 0.0
02/04:00pm 24.7 21.3 15.9 58 5.3 E 28 41 15 22 1017.4 1017.4 0.0
02/03:30pm 24.9 21.1 16.6 60 5.1 E 32 39 17 21 1017.2 1017.2 0.0
02/03:00pm 25.3 21.4 16.4 57 5.5 E 32 39 17 21 1017.2 1017.2 0.0
02/02:30pm 25.6 21.6 16.2 56 5.8 E 32 43 17 23 1017.2 1017.2 0.0
02/02:00pm 26.0 22.0 16.8 57 5.7 E 33 43 18 23 1017.2 1017.2 0.0
02/01:30pm 26.4 22.8 17.2 57 5.7 E 32 41 17 22 1017.5 1017.5 0.0
02/01:00pm 26.6 23.3 17.1 56 5.9 E 30 37 16 20 1017.7 1017.7 0.0
02/12:30pm 26.7 23.9 16.3 53 6.4 E 26 39 14 21 1017.9 1017.9 0.0
02/12:00pm 26.1 23.9 16.9 57 5.7 E 24 35 13 19 1018.2 1018.2 0.0
02/11:30am 26.8 24.2 15.8 51 6.7 E 24 35 13 19 1018.7 1018.7 0.0
02/11:00am 26.4 23.8 16.0 52 6.4 ESE 24 32 13 17 1019.0 1019.0 0.0
02/10:30am 25.3 23.1 15.9 56 5.7 SE 22 30 12 16 1019.3 1019.3 0.0
02/10:00am 24.6 23.0 16.1 59 5.2 SE 19 28 10 15 1019.4 1019.4 0.0
02/09:30am 23.5 21.9 16.1 63 4.5 SE 19 30 10 16 1019.6 1019.6 0.0
02/09:00am 23.3 21.3 16.4 65 4.2 SE 22 33 12 18 1019.8 1019.8 0.0
02/08:30am 22.4 21.2 16.2 68 3.8 SE 17 24 9 13 1019.8 1019.8 0.0
02/08:00am 22.0 20.4 16.5 71 3.3 SE 20 30 11 16 1019.8 1019.8 0.0
02/07:30am 21.3 19.8 16.3 73 3.0 SE 19 24 10 13 1019.5 1019.5 0.0
02/07:00am 21.0 20.6 16.2 74 2.9 SSE 13 19 7 10 1019.1 1019.1 0.0
02/06:30am 20.4 19.9 16.0 76 2.6 SSE 13 22 7 12 1018.7 1018.7 0.0
02/06:00am 19.9 19.3 15.7 77 2.5 SSE 13 20 7 11 1018.2 1018.2 0.0
02/05:30am 19.7 19.1 15.6 77 2.4 SSE 13 19 7 10 1017.8 1017.8 0.0
02/05:00am 19.8 18.1 15.7 77 2.4 SSE 19 30 10 16 1017.5 1017.5 0.0
02/04:30am 19.6 17.7 15.7 78 2.3 SE 20 32 11 17 1017.0 1017.0 0.0
02/04:00am 17.2 16.8 14.1 82 1.8 S 9 13 5 7 1016.9 1016.9 0.0
02/03:30am 16.8 16.3 13.9 83 1.6 S 9 17 5 9 1016.1 1016.1 0.0
02/03:00am 16.5 15.9 13.6 83 1.6 SSW 9 11 5 6 1015.5 1015.5 0.0
02/02:30am 16.8 18.0 13.7 82 1.8 CALM 0 0 0 0 1015.5 1015.5 0.0
02/02:00am 17.1 17.0 13.8 81 1.9 SW 7 9 4 5 1015.6 1015.6 0.0
02/01:30am 17.5 17.6 13.8 79 2.1 S 6 7 3 4 1015.8 1015.8 0.0
02/01:00am 18.3 19.3 14.4 78 2.2 S 2 11 1 6 1016.1 1016.1 0.0
02/12:30am 17.7 18.0 14.4 81 1.9 S 6 15 3 8 1016.6 1016.6 0.0
02/12:00am 18.2 18.3 14.5 79 2.1 SW 7 11 4 6 1016.2 1016.2 0.0
 
Date/Time
EST
Temp
°C
App
Temp
°C
Dew
Point
Rel
Hum
%
Delta-T
°C
Wind Press
QNH
hPa
Press
MSL
hPa
Rain
since 9 am
mm
Dir
 
Spd
km/h
Gust
km/h
Spd
kts
Gust
kts
01/11:30pm 18.6 20.1 14.7 78 2.3 CALM 0 0 0 0 1016.1 1016.1 0.0
01/11:00pm 19.5 20.9 15.4 77 2.4 NW 2 6 1 3 1016.2 1016.2 0.0
01/10:30pm 19.9 20.4 15.1 74 2.8 WNW 6 6 3 3 1016.0 1016.0 0.0
01/10:00pm 20.5 20.9 15.3 72 3.1 N 7 11 4 6 1016.0 1016.0 0.0
01/09:30pm 20.6 21.0 15.2 71 3.2 N 7 9 4 5 1016.1 1016.1 0.0
01/09:00pm 20.9 20.7 14.8 68 3.6 NNW 9 13 5 7 1016.2 1016.2 0.0
01/08:30pm 21.2 20.4 15.1 68 3.6 NNW 13 17 7 9 1016.2 1016.2 0.0
01/08:00pm 21.5 21.0 14.9 66 3.9 NNW 11 15 6 8 1016.2 1016.2 0.0
01/07:30pm 21.8 20.8 14.7 64 4.2 NNW 13 19 7 10 1016.2 1016.2 0.0
01/07:00pm 22.2 21.4 14.1 60 4.7 N 11 17 6 9 1015.9 1015.9 0.0
01/06:30pm 22.7 21.3 13.5 56 5.3 N 13 19 7 10 1015.6 1015.6 0.0
01/06:00pm 23.0 22.1 13.8 56 5.4 N 11 15 6 8 1015.4 1015.4 0.0
01/05:30pm 23.6 21.6 13.8 54 5.7 NNE 17 22 9 12 1015.1 1015.1 0.0
01/05:00pm 24.2 21.8 13.7 52 6.1 NNE 19 24 10 13 1014.9 1014.9 0.0
01/04:30pm 25.3 22.9 13.8 49 6.8 NE 19 26 10 14 1014.9 1014.9 0.0
01/04:00pm 25.2 22.5 13.4 48 6.9 NE 20 28 11 15 1014.9 1014.9 0.0
01/03:30pm 25.9 23.1 13.1 45 7.5 NE 20 28 11 15 1014.9 1014.9 0.0
01/03:00pm 26.3 23.6 13.4 45 7.6 NNE 20 24 11 13 1015.2 1015.2 0.0
01/02:30pm 26.8 24.3 14.2 46 7.5 ENE 20 28 11 15 1015.3 1015.3 0.0
01/02:00pm 26.9 24.4 13.6 44 7.9 NE 19 26 10 14 1015.6 1015.6 0.0
01/01:30pm 27.0 24.9 14.7 47 7.4 NE 19 24 10 13 1016.1 1016.1 0.0
01/01:00pm 25.8 23.6 13.3 46 7.3 NE 17 22 9 12 1016.5 1016.5 0.0
01/12:30pm 25.9 24.4 14.1 48 7.0 NE 15 22 8 12 1016.9 1016.9 0.0
01/12:00pm 25.7 23.7 13.9 48 7.0 NE 17 22 9 12 1017.5 1017.5 0.0
01/11:30am 25.4 24.0 13.3 47 7.1 N 13 19 7 10 1018.2 1018.2 0.0
01/11:00am 24.8 22.4 12.7 47 7.0 N 17 22 9 12 1018.7 1018.7 0.0
01/10:30am 24.4 23.3 13.0 49 6.6 NNW 11 19 6 10 1019.2 1019.2 0.0
01/10:00am 24.0 23.4 13.5 52 6.1 NW 9 19 5 10 1019.6 1019.6 0.0
01/09:30am 23.1 22.3 13.0 53 5.8 NW 9 15 5 8 1019.8 1019.8 0.0
01/09:00am 22.3 20.2 12.5 53 5.6 N 15 20 8 11 1019.8 1019.8 0.0
01/08:30am 21.7 21.2 12.8 57 5.1 WNW 7 13 4 7 1019.9 1019.9 0.0
01/08:00am 20.2 20.2 13.6 66 3.8 SW 6 7 3 4 1019.9 1019.9 0.0
01/07:30am 18.0 17.0 13.3 74 2.7 SSW 11 13 6 7 1020.0 1020.0 0.0
01/07:00am 17.0 16.8 12.9 77 2.3 SSW 6 9 3 5 1019.8 1019.8 0.0
01/06:30am 15.8 16.6 12.7 82 1.7 CALM 0 0 0 0 1019.5 1019.5 0.0
01/06:00am 14.7 14.3 12.4 86 1.3 SSW 6 9 3 5 1019.4 1019.4 0.0
01/05:30am 14.3 14.9 12.0 86 1.2 CALM 0 0 0 0 1019.2 1019.2 0.0
01/05:00am 14.5 14.8 12.2 86 1.2 SSW 2 9 1 5 1019.1 1019.1 0.0
01/04:30am 14.8 15.1 12.3 85 1.4 SW 2 7 1 4 1019.0 1019.0 0.0
01/04:00am 14.9 15.6 12.2 84 1.5 CALM 0 0 0 0 1018.8 1018.8 0.0
01/03:30am 15.2 16.0 12.5 84 1.5 CALM 0 0 0 0 1018.7 1018.7 0.0
01/03:00am 15.3 16.1 12.6 84 1.5 CALM 0 0 0 0 1018.9 1018.9 0.0
01/02:30am 15.5 16.3 12.6 83 1.6 CALM 0 0 0 0 1018.9 1018.9 0.0
01/02:00am 15.5 16.3 12.4 82 1.7 CALM 0 0 0 0 1019.2 1019.2 0.0
01/01:30am 15.9 16.7 12.6 81 1.8 CALM 0 0 0 0 1019.4 1019.4 0.0
01/01:00am 16.0 16.9 12.9 82 1.7 CALM 0 0 0 0 1019.6 1019.6 0.0
01/12:30am 15.9 16.7 12.6 81 1.8 CALM 0 0 0 0 1019.7 1019.7 0.0
01/12:00am 16.3 17.2 12.8 80 1.9 CALM 0 0 0 0 1019.9 1019.9 0.0
 
Date/Time
EST
Temp
°C
App
Temp
°C
Dew
Point
Rel
Hum
%
Delta-T
°C
Wind Press
QNH
hPa
Press
MSL
hPa
Rain
since 9 am
mm
Dir
 
Spd
km/h
Gust
km/h
Spd
kts
Gust
kts
30/11:30pm 16.7 17.6 12.8 78 2.2 CALM 0 0 0 0 1020.1 1020.1 0.0
30/11:00pm 17.1 17.6 12.8 76 2.4 SSW 2 6 1 3 1020.2 1020.2 0.0
30/10:30pm 17.6 18.5 12.9 74 2.6 CALM 0 0 0 0 1020.2 1020.2 0.0
30/10:00pm 18.7 19.6 12.9 69 3.3 CALM 0 0 0 0 1020.3 1020.3 0.0
30/09:30pm 20.3 19.9 13.0 63 4.1 N 7 11 4 6 1020.2 1020.2 0.0
30/09:00pm 20.4 19.7 13.1 63 4.1 N 9 11 5 6 1020.2 1020.2 0.0
30/08:30pm 20.8 20.6 13.5 63 4.2 NE 7 13 4 7 1020.2 1020.2 0.0
30/08:00pm 21.0 19.9 13.2 61 4.4 NE 11 15 6 8 1020.0 1020.0 0.0
30/07:30pm 21.1 20.6 13.8 63 4.2 NE 9 11 5 6 1019.5 1019.5 0.0
30/07:00pm 21.3 20.5 14.0 63 4.2 NE 11 15 6 8 1019.2 1019.2 0.0
30/06:30pm 21.5 20.4 14.4 64 4.2 NE 13 19 7 10 1018.8 1018.8 0.0
30/06:00pm 21.9 20.3 14.0 61 4.6 NE 15 20 8 11 1018.3 1018.3 0.0
30/05:30pm 22.3 20.4 14.2 60 4.7 NE 17 22 9 12 1018.1 1018.1 0.0
30/05:00pm 23.0 21.0 14.0 57 5.3 ENE 17 22 9 12 1017.9 1017.9 0.0
30/04:30pm 23.4 21.0 13.8 54 5.6 ENE 19 26 10 14 1017.7 1017.7 0.0
30/04:00pm 23.4 21.3 13.6 54 5.7 NE 17 26 9 14 1017.7 1017.7 0.0
30/03:30pm 23.8 21.1 13.6 52 5.9 NNE 20 26 11 14 1017.7 1017.7 0.0
30/03:00pm 24.1 22.0 13.6 52 6.1 NE 17 24 9 13 1017.9 1017.9 0.0
30/02:30pm 24.2 21.5 13.4 51 6.3 NNE 20 28 11 15 1018.2 1018.2 0.0
30/02:00pm 25.2 22.6 13.7 49 6.7 ENE 20 28 11 15 1018.4 1018.4 0.0
30/01:30pm 24.8 22.4 12.7 47 7.0 ENE 17 22 9 12 1018.9 1018.9 0.0
30/01:00pm 25.1 22.3 12.7 46 7.1 ENE 19 26 10 14 1019.3 1019.3 0.0
30/12:30pm 24.6 21.9 12.9 48 6.8 ENE 19 28 10 15 1019.7 1019.7 0.0
30/12:00pm 24.5 21.6 12.8 48 6.7 ENE 20 26 11 14 1020.2 1020.2 0.0
30/11:30am 25.0 21.8 13.2 48 6.9 NE 22 30 12 16 1020.6 1020.6 0.0
30/11:00am 24.1 21.5 12.1 47 6.8 NNE 17 22 9 12 1021.2 1021.2 0.0
30/10:30am 23.7 22.5 11.7 47 6.8 NE 9 17 5 9 1021.5 1021.5 0.0
30/10:00am 23.3 21.7 12.9 52 6.0 E 13 19 7 10 1021.8 1021.8 0.0
30/09:30am 22.8 20.9 11.8 50 6.2 NE 13 20 7 11 1021.8 1021.8 0.0
30/09:00am 22.8 22.6 13.6 56 5.3 NE 7 15 4 8 1021.7 1021.7 0.0
30/08:30am 22.1 22.5 14.7 63 4.4 WSW 6 9 3 5 1021.6 1021.6 0.0
30/08:00am 19.7 19.4 14.3 71 3.1 SSW 9 11 5 6 1021.5 1021.5 0.0
30/07:30am 18.0 17.1 13.7 76 2.4 SW 11 15 6 8 1021.3 1021.3 0.0
30/07:00am 16.4 15.8 13.5 83 1.6 SSW 9 13 5 7 1021.1 1021.1 0.0
30/06:30am 15.0 13.9 13.0 88 1.1 SSW 11 15 6 8 1020.8 1020.8 0.0
30/06:00am 14.5 13.3 12.9 90 0.9 SSW 11 17 6 9 1020.5 1020.5 0.0
30/05:30am 14.6 13.5 13.0 90 0.9 SSW 11 13 6 7 1020.2 1020.2 0.0
30/05:00am 14.5 14.1 12.9 90 0.9 SSW 7 11 4 6 1020.0 1020.0 0.0
30/04:30am 14.7 14.5 13.1 90 0.9 SSW 6 11 3 6 1019.7 1019.7 0.0
30/04:00am 14.7 14.9 12.9 89 1.0 SW 4 9 2 5 1019.5 1019.5 0.0
30/03:30am 14.8 13.7 13.0 89 1.0 SSW 11 15 6 8 1019.4 1019.4 0.0
30/03:00am 15.2 14.1 13.2 88 1.1 SSW 11 17 6 9 1019.4 1019.4 0.0
30/02:30am 15.6 14.9 13.3 86 1.3 SSW 9 13 5 7 1019.4 1019.4 0.0
30/02:00am 15.8 15.1 13.3 85 1.4 SSW 9 11 5 6 1019.5 1019.5 0.0
30/01:30am 16.0 15.7 13.3 84 1.5 SSW 7 9 4 5 1019.6 1019.6 0.0
30/01:00am 16.2 15.6 13.5 84 1.5 SSW 9 13 5 7 1019.8 1019.8 0.0
30/12:30am 16.4 16.3 13.3 82 1.7 SSW 6 9 3 5 1020.1 1020.1 0.0
30/12:00am 16.5 17.4 13.0 80 1.9 CALM 0 0 0 0 1020.1 1020.1 0.0
 
Date/Time
EST
Temp
°C
App
Temp
°C
Dew
Point
Rel
Hum
%
Delta-T
°C
Wind Press
QNH
hPa
Press
MSL
hPa
Rain
since 9 am
mm
Dir
 
Spd
km/h
Gust
km/h
Spd
kts
Gust
kts
29/11:30pm 17.0 18.0 13.1 78 2.2 CALM 0 0 0 0 1020.4 1020.4 0.0
29/11:00pm 17.6 17.5 13.3 76 2.4 S 6 7 3 4 1020.5 1020.5 0.0
29/10:30pm 17.9 18.2 13.4 75 2.5 S 4 6 2 3 1020.6 1020.6 0.0
29/10:00pm 18.3 18.3 13.6 74 2.7 SE 6 7 3 4 1020.7 1020.7 0.0
29/09:30pm 19.6 19.6 14.2 71 3.1 ESE 7 7 4 4 1020.7 1020.7 0.0
29/09:00pm 19.6 20.0 13.8 69 3.3 S 4 7 2 4 1020.6 1020.6 0.0

Other Formats:

Comma delimited format used in spreadsheet applications
http://www.bom.gov.au/fwo/IDQ60801/IDQ60801.94381.axf

JavaScript Object Notation format (JSON) in row-major order
http://www.bom.gov.au/fwo/IDQ60801/IDQ60801.94381.json